createdAt,value
2022-08-28T00:00:00.747Z,0
2022-08-28T00:01:00.740Z,0
2022-08-28T00:02:00.729Z,0
2022-08-28T00:03:00.736Z,0
2022-08-28T00:04:00.706Z,0
2022-08-28T00:05:00.695Z,0
2022-08-28T00:06:00.683Z,0
2022-08-28T00:07:00.677Z,0
2022-08-28T00:08:00.664Z,0
2022-08-28T00:09:00.663Z,0
2022-08-28T00:10:00.648Z,0
2022-08-28T00:11:00.634Z,0
2022-08-28T00:12:00.618Z,0
2022-08-28T00:13:00.616Z,0
2022-08-28T00:14:00.600Z,0
2022-08-28T00:15:00.601Z,0
2022-08-28T00:16:00.584Z,0
2022-08-28T00:17:00.569Z,0
2022-08-28T00:18:00.588Z,0
2022-08-28T00:19:00.553Z,0
2022-08-28T00:20:00.553Z,0
2022-08-28T00:21:00.526Z,0
2022-08-28T00:22:00.518Z,0
2022-08-28T00:23:00.509Z,0
2022-08-28T00:24:00.499Z,0
2022-08-28T00:25:00.496Z,0
2022-08-28T00:26:00.474Z,0
2022-08-28T00:27:00.464Z,0
2022-08-28T00:28:00.464Z,0
2022-08-28T00:29:00.441Z,0
2022-08-28T00:30:00.430Z,0
2022-08-28T00:31:00.429Z,0
2022-08-28T00:32:00.429Z,0
2022-08-28T00:33:00.417Z,0
2022-08-28T00:34:00.389Z,0
2022-08-28T00:35:00.382Z,0
2022-08-28T00:36:00.370Z,0
2022-08-28T00:37:00.362Z,0
2022-08-28T00:38:00.353Z,0
2022-08-28T00:39:00.347Z,0
2022-08-28T00:40:00.336Z,0
2022-08-28T00:41:00.316Z,0
2022-08-28T00:42:00.309Z,0
2022-08-28T00:43:00.298Z,0
2022-08-28T00:44:00.300Z,0
2022-08-28T00:45:00.272Z,0
2022-08-28T00:46:00.266Z,0
2022-08-28T00:47:00.264Z,0
2022-08-28T00:48:00.246Z,0
2022-08-28T00:49:00.238Z,0
2022-08-28T00:50:00.224Z,0
2022-08-28T00:51:00.210Z,0
2022-08-28T00:52:00.205Z,0
2022-08-28T00:53:00.195Z,0
2022-08-28T00:54:00.184Z,0
2022-08-28T00:55:00.181Z,0
2022-08-28T00:56:00.184Z,0
2022-08-28T00:57:00.149Z,0
2022-08-28T00:58:00.136Z,0
2022-08-28T00:59:00.128Z,0
2022-08-28T01:00:00.120Z,0
2022-08-28T01:01:00.138Z,0
2022-08-28T01:02:00.100Z,0
2022-08-28T01:03:00.087Z,0
2022-08-28T01:04:00.076Z,0
2022-08-28T01:05:00.066Z,0
2022-08-28T01:06:00.054Z,0
2022-08-28T01:07:00.045Z,0
2022-08-28T01:08:00.036Z,0
2022-08-28T01:09:00.022Z,0
2022-08-28T01:10:00.014Z,0
2022-08-28T01:10:59.999Z,0
2022-08-28T01:11:59.988Z,0
2022-08-28T01:12:59.988Z,0
2022-08-28T01:13:59.984Z,0
2022-08-28T01:14:59.962Z,0
2022-08-28T01:15:59.948Z,0
2022-08-28T01:16:59.936Z,0
2022-08-28T01:17:59.941Z,0
2022-08-28T01:18:59.920Z,0
2022-08-28T01:19:59.916Z,0
2022-08-28T01:20:59.905Z,0
2022-08-28T01:21:59.887Z,0
2022-08-28T01:22:59.876Z,0
2022-08-28T01:23:59.866Z,0
2022-08-28T01:24:59.863Z,0
2022-08-28T01:25:59.840Z,0
2022-08-28T01:26:59.862Z,0
2022-08-28T01:27:59.839Z,0
2022-08-28T01:28:59.831Z,0
2022-08-28T01:29:59.825Z,0
2022-08-28T01:30:59.800Z,0
2022-08-28T01:31:59.795Z,0
2022-08-28T01:32:59.786Z,0
2022-08-28T01:33:59.763Z,0
2022-08-28T01:34:59.754Z,0
2022-08-28T01:35:59.749Z,0
2022-08-28T01:36:59.740Z,0
2022-08-28T01:37:59.731Z,0
2022-08-28T01:38:59.708Z,0
2022-08-28T01:39:59.698Z,0
2022-08-28T01:40:59.690Z,0
2022-08-28T01:41:59.676Z,0
2022-08-28T01:42:59.667Z,0
2022-08-28T01:43:59.667Z,0
2022-08-28T01:44:59.674Z,0
2022-08-28T01:45:59.638Z,0
2022-08-28T01:46:59.628Z,0
2022-08-28T01:47:59.615Z,0
2022-08-28T01:48:59.619Z,0
2022-08-28T01:49:59.620Z,0
2022-08-28T01:50:59.592Z,0
2022-08-28T01:51:59.572Z,0
2022-08-28T01:52:59.615Z,0
2022-08-28T01:53:59.552Z,0
2022-08-28T01:54:59.543Z,0
2022-08-28T01:55:59.542Z,0
2022-08-28T01:56:59.515Z,0
2022-08-28T01:57:59.505Z,0
2022-08-28T01:58:59.504Z,0
2022-08-28T01:59:59.488Z,0
2022-08-28T02:00:59.473Z,0
2022-08-28T02:01:59.477Z,0
2022-08-28T02:02:59.455Z,0
2022-08-28T02:03:59.447Z,0
2022-08-28T02:04:59.450Z,0
2022-08-28T02:05:59.432Z,0
2022-08-28T02:06:59.423Z,0
2022-08-28T02:07:59.417Z,0
2022-08-28T02:08:59.397Z,0
2022-08-28T02:09:59.381Z,0
2022-08-28T02:10:59.376Z,0
2022-08-28T02:11:59.361Z,0
2022-08-28T02:12:59.351Z,0
2022-08-28T02:13:59.356Z,0
2022-08-28T02:14:59.326Z,0
2022-08-28T02:15:59.317Z,0
2022-08-28T02:16:59.310Z,0
2022-08-28T02:17:59.293Z,0
2022-08-28T02:18:59.288Z,0
2022-08-28T02:19:59.282Z,0
2022-08-28T02:20:59.269Z,0
2022-08-28T02:21:59.255Z,0
2022-08-28T02:22:59.253Z,0
2022-08-28T02:23:59.242Z,0
2022-08-28T02:24:59.231Z,0
2022-08-28T02:25:59.219Z,0
2022-08-28T02:26:59.234Z,0
2022-08-28T02:27:59.192Z,0
2022-08-28T02:28:59.207Z,0
2022-08-28T02:29:59.177Z,0
2022-08-28T02:30:59.163Z,0
2022-08-28T02:31:59.143Z,0
2022-08-28T02:32:59.138Z,0
2022-08-28T02:33:59.143Z,0
2022-08-28T02:34:59.117Z,0
2022-08-28T02:35:59.099Z,0
2022-08-28T02:36:59.096Z,0
2022-08-28T02:37:59.084Z,0
2022-08-28T02:38:59.067Z,0
2022-08-28T02:39:59.070Z,0
2022-08-28T02:40:59.054Z,0
2022-08-28T02:41:59.033Z,0
2022-08-28T02:42:59.029Z,0
2022-08-28T02:43:59.015Z,0
2022-08-28T02:44:59.012Z,0
2022-08-28T02:45:58.990Z,0
2022-08-28T02:46:58.980Z,0
2022-08-28T02:47:58.975Z,0
2022-08-28T02:48:58.984Z,0
2022-08-28T02:49:58.951Z,0
2022-08-28T02:50:58.941Z,0
2022-08-28T02:51:58.924Z,0
2022-08-28T02:52:58.915Z,0
2022-08-28T02:53:58.912Z,0
2022-08-28T02:54:58.896Z,0
2022-08-28T02:55:58.888Z,0
2022-08-28T02:56:58.883Z,0
2022-08-28T02:57:58.860Z,0
2022-08-28T02:58:58.866Z,0
2022-08-28T02:59:58.844Z,0
2022-08-28T03:00:58.832Z,0
2022-08-28T03:01:58.818Z,0
2022-08-28T03:02:58.816Z,0
2022-08-28T03:03:58.798Z,0
2022-08-28T03:04:58.786Z,0
2022-08-28T03:05:58.780Z,0
2022-08-28T03:06:58.780Z,0
2022-08-28T03:07:58.753Z,0
2022-08-28T03:08:58.752Z,0
2022-08-28T03:09:58.729Z,0
2022-08-28T03:10:58.725Z,0
2022-08-28T03:11:58.715Z,0
2022-08-28T03:12:58.700Z,0
2022-08-28T03:13:58.696Z,0
2022-08-28T03:14:58.699Z,0
2022-08-28T03:15:58.665Z,0
2022-08-28T03:16:58.655Z,0
2022-08-28T03:17:58.642Z,0
2022-08-28T03:18:58.642Z,0
2022-08-28T03:19:58.627Z,0
2022-08-28T03:20:58.611Z,0
2022-08-28T03:21:58.611Z,0
2022-08-28T03:22:58.590Z,0
2022-08-28T03:23:58.587Z,0
2022-08-28T03:24:58.567Z,0
2022-08-28T03:25:58.566Z,0
2022-08-28T03:26:58.561Z,0
2022-08-28T03:27:58.542Z,0
2022-08-28T03:28:58.530Z,0
2022-08-28T03:29:58.513Z,0
2022-08-28T03:30:58.508Z,0
2022-08-28T03:31:58.509Z,0
2022-08-28T03:32:58.483Z,0
2022-08-28T03:33:58.468Z,0
2022-08-28T03:34:58.478Z,0
2022-08-28T03:35:58.447Z,0
2022-08-28T03:36:58.441Z,0
2022-08-28T03:37:58.434Z,0
2022-08-28T03:38:58.419Z,0
2022-08-28T03:39:58.412Z,0
2022-08-28T03:40:58.407Z,0
2022-08-28T03:41:58.394Z,0
2022-08-28T03:42:58.379Z,0
2022-08-28T03:43:58.360Z,0
2022-08-28T03:44:58.353Z,0
2022-08-28T03:45:58.345Z,0
2022-08-28T03:46:58.331Z,0
2022-08-28T03:47:58.317Z,0
2022-08-28T03:48:58.311Z,0
2022-08-28T03:49:58.295Z,0
2022-08-28T03:50:58.284Z,0
2022-08-28T03:51:58.277Z,0
2022-08-28T03:52:58.275Z,0
2022-08-28T03:53:58.251Z,0
2022-08-28T03:54:58.244Z,0
2022-08-28T03:55:58.228Z,0
2022-08-28T03:56:58.223Z,0
2022-08-28T03:57:58.206Z,0
2022-08-28T03:58:58.196Z,0
2022-08-28T03:59:58.188Z,0
2022-08-28T04:00:58.268Z,0
2022-08-28T04:01:59.192Z,0
2022-08-28T04:02:58.150Z,0
2022-08-28T04:03:58.143Z,0
2022-08-28T04:04:58.172Z,0
2022-08-28T04:05:58.120Z,0
2022-08-28T04:06:58.111Z,0
2022-08-28T04:07:58.110Z,0
2022-08-28T04:08:58.090Z,0
2022-08-28T04:09:58.092Z,0
2022-08-28T04:10:58.067Z,0
2022-08-28T04:11:58.069Z,0
2022-08-28T04:12:58.061Z,0
2022-08-28T04:13:58.056Z,0
2022-08-28T04:14:58.027Z,0
2022-08-28T04:15:58.019Z,0
2022-08-28T04:16:58.010Z,0
2022-08-28T04:17:57.996Z,0
2022-08-28T04:18:57.982Z,0
2022-08-28T04:19:57.980Z,0
2022-08-28T04:20:57.971Z,0
2022-08-28T04:21:57.958Z,0
2022-08-28T04:22:57.959Z,0
2022-08-28T04:23:57.939Z,0
2022-08-28T04:24:57.924Z,0
2022-08-28T04:25:57.918Z,0
2022-08-28T04:26:57.904Z,0
2022-08-28T04:27:57.908Z,0
2022-08-28T04:28:57.889Z,0
2022-08-28T04:29:57.881Z,0
2022-08-28T04:30:57.889Z,0
2022-08-28T04:31:57.852Z,0
2022-08-28T04:32:57.840Z,0
2022-08-28T04:33:57.831Z,0
2022-08-28T04:34:57.837Z,0
2022-08-28T04:35:57.813Z,0
2022-08-28T04:36:57.808Z,0
2022-08-28T04:37:57.784Z,5.62
2022-08-28T04:38:57.771Z,5.62
2022-08-28T04:39:57.766Z,5.62
2022-08-28T04:40:57.757Z,5.62
2022-08-28T04:41:57.746Z,5.62
2022-08-28T04:42:57.732Z,5.62
2022-08-28T04:43:57.719Z,5.62
2022-08-28T04:44:57.710Z,5.62
2022-08-28T04:45:57.703Z,5.62
2022-08-28T04:46:57.689Z,5.62
2022-08-28T04:47:57.681Z,5.62
2022-08-28T04:48:57.669Z,5.62
2022-08-28T04:49:57.665Z,5.62
2022-08-28T04:50:57.653Z,11.25
2022-08-28T04:51:57.652Z,11.25
2022-08-28T04:52:57.635Z,11.25
2022-08-28T04:53:57.635Z,11.25
2022-08-28T04:54:57.607Z,11.25
2022-08-28T04:55:57.597Z,11.25
2022-08-28T04:56:57.590Z,11.25
2022-08-28T04:57:57.588Z,11.25
2022-08-28T04:58:57.566Z,11.25
2022-08-28T04:59:57.583Z,11.25
2022-08-28T05:00:57.539Z,16.88
2022-08-28T05:01:57.534Z,16.88
2022-08-28T05:02:57.524Z,16.88
2022-08-28T05:03:57.545Z,16.88
2022-08-28T05:04:57.499Z,16.88
2022-08-28T05:05:57.488Z,16.88
2022-08-28T05:06:57.480Z,16.88
2022-08-28T05:07:57.460Z,22.5
2022-08-28T05:08:57.459Z,22.5
2022-08-28T05:09:57.445Z,22.5
2022-08-28T05:10:57.428Z,22.5
2022-08-28T05:11:57.430Z,22.5
2022-08-28T05:12:57.415Z,22.5
2022-08-28T05:13:57.403Z,28.12
2022-08-28T05:14:57.398Z,28.12
2022-08-28T05:15:57.401Z,28.12
2022-08-28T05:16:57.381Z,28.12
2022-08-28T05:17:57.360Z,28.12
2022-08-28T05:18:57.344Z,28.12
2022-08-28T05:19:57.341Z,28.12
2022-08-28T05:20:57.335Z,28.12
2022-08-28T05:21:57.312Z,28.12
2022-08-28T05:22:57.302Z,28.12
2022-08-28T05:23:57.305Z,22.5
2022-08-28T05:24:57.282Z,22.5
2022-08-28T05:25:57.269Z,22.5
2022-08-28T05:26:57.277Z,22.5
2022-08-28T05:27:57.251Z,22.5
2022-08-28T05:28:57.235Z,22.5
2022-08-28T05:29:57.233Z,22.5
2022-08-28T05:30:57.208Z,28.12
2022-08-28T05:31:57.206Z,28.12
2022-08-28T05:32:57.187Z,28.12
2022-08-28T05:33:57.188Z,28.12
2022-08-28T05:34:57.171Z,33.75
2022-08-28T05:35:57.160Z,33.75
2022-08-28T05:36:57.166Z,33.75
2022-08-28T05:37:57.149Z,33.75
2022-08-28T05:38:57.128Z,39.38
2022-08-28T05:39:57.114Z,39.38
2022-08-28T05:40:57.116Z,39.38
2022-08-28T05:41:57.092Z,39.38
2022-08-28T05:42:57.084Z,39.38
2022-08-28T05:43:57.071Z,45
2022-08-28T05:44:57.077Z,45
2022-08-28T05:45:57.065Z,45
2022-08-28T05:46:57.040Z,45
2022-08-28T05:47:57.024Z,45
2022-08-28T05:48:57.018Z,45
2022-08-28T05:49:57.015Z,45
2022-08-28T05:50:57.004Z,50.62
2022-08-28T05:51:56.989Z,50.62
2022-08-28T05:52:56.989Z,50.62
2022-08-28T05:53:56.963Z,45
2022-08-28T05:54:56.958Z,45
2022-08-28T05:55:56.947Z,45
2022-08-28T05:56:56.927Z,45
2022-08-28T05:57:56.917Z,45
2022-08-28T05:58:56.905Z,50.62
2022-08-28T05:59:56.894Z,50.62
2022-08-28T06:00:56.890Z,50.62
2022-08-28T06:01:56.876Z,56.25
2022-08-28T06:02:56.875Z,56.25
2022-08-28T06:03:56.855Z,61.88
2022-08-28T06:04:56.840Z,61.88
2022-08-28T06:05:56.839Z,61.88
2022-08-28T06:06:56.827Z,67.5
2022-08-28T06:07:56.811Z,67.5
2022-08-28T06:08:56.796Z,67.5
2022-08-28T06:09:56.784Z,67.5
2022-08-28T06:10:56.782Z,73.12
2022-08-28T06:11:56.782Z,73.12
2022-08-28T06:12:56.760Z,73.12
2022-08-28T06:13:56.760Z,73.12
2022-08-28T06:14:56.739Z,73.12
2022-08-28T06:15:56.728Z,78.75
2022-08-28T06:16:56.719Z,78.75
2022-08-28T06:17:56.700Z,78.75
2022-08-28T06:18:56.694Z,78.75
2022-08-28T06:19:56.691Z,78.75
2022-08-28T06:20:56.672Z,84.38
2022-08-28T06:21:56.650Z,84.38
2022-08-28T06:22:56.650Z,78.75
2022-08-28T06:23:56.639Z,73.12
2022-08-28T06:24:56.649Z,73.12
2022-08-28T06:25:56.623Z,78.75
2022-08-28T06:26:56.604Z,73.12
2022-08-28T06:27:56.592Z,73.12
2022-08-28T06:28:56.588Z,78.75
2022-08-28T06:29:56.569Z,78.75
2022-08-28T06:30:56.566Z,78.75
2022-08-28T06:31:56.555Z,84.38
2022-08-28T06:32:56.536Z,84.38
2022-08-28T06:33:56.529Z,84.38
2022-08-28T06:34:56.519Z,90
2022-08-28T06:35:56.507Z,90
2022-08-28T06:36:56.506Z,90
2022-08-28T06:37:56.484Z,90
2022-08-28T06:38:56.481Z,95.62
2022-08-28T06:39:56.465Z,106.88
2022-08-28T06:40:56.452Z,90
2022-08-28T06:41:56.449Z,95.62
2022-08-28T06:42:56.431Z,95.62
2022-08-28T06:43:56.425Z,101.25
2022-08-28T06:44:56.411Z,106.88
2022-08-28T06:45:56.400Z,112.5
2022-08-28T06:46:56.385Z,112.5
2022-08-28T06:47:56.387Z,112.5
2022-08-28T06:48:56.369Z,118.12
2022-08-28T06:49:56.355Z,118.12
2022-08-28T06:50:56.347Z,118.12
2022-08-28T06:51:56.335Z,129.38
2022-08-28T06:52:56.330Z,101.25
2022-08-28T06:53:56.318Z,95.62
2022-08-28T06:54:56.325Z,90
2022-08-28T06:55:56.293Z,90
2022-08-28T06:56:56.283Z,95.62
2022-08-28T06:57:56.280Z,90
2022-08-28T06:58:56.255Z,90
2022-08-28T06:59:56.261Z,95.62
2022-08-28T07:00:56.238Z,95.62
2022-08-28T07:01:56.234Z,101.25
2022-08-28T07:02:56.224Z,106.88
2022-08-28T07:03:56.205Z,112.5
2022-08-28T07:04:56.212Z,112.5
2022-08-28T07:05:56.217Z,123.75
2022-08-28T07:06:56.201Z,157.5
2022-08-28T07:07:56.160Z,163.12
2022-08-28T07:08:56.170Z,185.62
2022-08-28T07:09:56.144Z,151.88
2022-08-28T07:10:56.132Z,140.62
2022-08-28T07:11:56.152Z,135
2022-08-28T07:12:56.114Z,140.62
2022-08-28T07:13:56.112Z,146.25
2022-08-28T07:14:56.098Z,196.88
2022-08-28T07:15:56.081Z,196.88
2022-08-28T07:16:56.071Z,208.12
2022-08-28T07:17:56.071Z,185.62
2022-08-28T07:18:56.053Z,151.88
2022-08-28T07:19:56.039Z,213.75
2022-08-28T07:20:56.037Z,174.38
2022-08-28T07:21:56.017Z,146.25
2022-08-28T07:22:56.018Z,151.88
2022-08-28T07:23:56.015Z,146.25
2022-08-28T07:24:55.986Z,202.5
2022-08-28T07:25:55.977Z,196.88
2022-08-28T07:26:55.968Z,196.88
2022-08-28T07:27:55.959Z,196.88
2022-08-28T07:28:55.952Z,185.62
2022-08-28T07:29:55.946Z,135
2022-08-28T07:30:55.918Z,129.38
2022-08-28T07:31:55.916Z,151.88
2022-08-28T07:32:55.899Z,191.25
2022-08-28T07:33:55.891Z,180
2022-08-28T07:34:55.878Z,163.12
2022-08-28T07:35:55.881Z,191.25
2022-08-28T07:36:55.859Z,241.88
2022-08-28T07:37:55.871Z,196.88
2022-08-28T07:38:55.835Z,185.62
2022-08-28T07:39:55.831Z,174.38
2022-08-28T07:40:55.830Z,163.12
2022-08-28T07:41:55.807Z,225
2022-08-28T07:42:55.799Z,157.5
2022-08-28T07:43:55.790Z,247.5
2022-08-28T07:44:55.776Z,247.5
2022-08-28T07:45:55.769Z,180
2022-08-28T07:46:55.776Z,174.38
2022-08-28T07:47:55.745Z,180
2022-08-28T07:48:55.729Z,213.75
2022-08-28T07:49:55.733Z,236.25
2022-08-28T07:50:55.710Z,258.75
2022-08-28T07:51:55.706Z,174.38
2022-08-28T07:52:55.690Z,168.75
2022-08-28T07:53:55.675Z,157.5
2022-08-28T07:54:55.668Z,196.88
2022-08-28T07:55:55.675Z,180
2022-08-28T07:56:55.645Z,163.12
2022-08-28T07:57:55.639Z,174.38
2022-08-28T07:58:55.633Z,180
2022-08-28T07:59:55.640Z,208.12
2022-08-28T08:00:55.620Z,208.12
2022-08-28T08:01:55.604Z,247.5
2022-08-28T08:02:55.583Z,191.25
2022-08-28T08:03:55.573Z,213.75
2022-08-28T08:04:55.581Z,174.38
2022-08-28T08:05:55.554Z,168.75
2022-08-28T08:06:55.540Z,185.62
2022-08-28T08:07:55.530Z,168.75
2022-08-28T08:08:55.519Z,163.12
2022-08-28T08:09:55.524Z,281.25
2022-08-28T08:10:55.503Z,241.88
2022-08-28T08:11:55.486Z,151.88
2022-08-28T08:12:55.481Z,151.88
2022-08-28T08:13:55.470Z,151.88
2022-08-28T08:14:55.466Z,146.25
2022-08-28T08:15:55.469Z,163.12
2022-08-28T08:16:55.442Z,180
2022-08-28T08:17:55.428Z,213.75
2022-08-28T08:18:55.417Z,258.75
2022-08-28T08:19:55.411Z,202.5
2022-08-28T08:20:55.393Z,208.12
2022-08-28T08:21:55.388Z,208.12
2022-08-28T08:22:55.397Z,174.38
2022-08-28T08:23:55.361Z,163.12
2022-08-28T08:24:55.345Z,168.75
2022-08-28T08:25:55.341Z,151.88
2022-08-28T08:26:55.331Z,146.25
2022-08-28T08:27:55.329Z,180
2022-08-28T08:28:55.321Z,225
2022-08-28T08:29:55.299Z,376.88
2022-08-28T08:30:55.292Z,472.5
2022-08-28T08:31:55.272Z,478.12
2022-08-28T08:32:55.266Z,495
2022-08-28T08:33:55.260Z,500.62
2022-08-28T08:34:55.261Z,489.38
2022-08-28T08:35:55.234Z,478.12
2022-08-28T08:36:55.223Z,185.62
2022-08-28T08:37:55.220Z,163.12
2022-08-28T08:38:55.210Z,146.25
2022-08-28T08:39:55.199Z,157.5
2022-08-28T08:40:55.177Z,180
2022-08-28T08:41:55.165Z,585
2022-08-28T08:42:55.161Z,826.88
2022-08-28T08:43:55.156Z,298.12
2022-08-28T08:44:55.148Z,264.38
2022-08-28T08:45:55.155Z,236.25
2022-08-28T08:46:55.111Z,596.25
2022-08-28T08:47:55.099Z,489.38
2022-08-28T08:48:55.100Z,911.25
2022-08-28T08:49:55.079Z,995.62
2022-08-28T08:50:55.074Z,416.25
2022-08-28T08:51:55.061Z,236.25
2022-08-28T08:52:55.046Z,185.62
2022-08-28T08:53:55.045Z,438.75
2022-08-28T08:54:55.036Z,618.75
2022-08-28T08:55:55.016Z,196.88
2022-08-28T08:56:55.024Z,163.12
2022-08-28T08:57:54.999Z,157.5
2022-08-28T08:58:54.992Z,180
2022-08-28T08:59:54.987Z,506.25
2022-08-28T09:00:54.963Z,281.25
2022-08-28T09:01:54.965Z,517.5
2022-08-28T09:02:54.944Z,438.75
2022-08-28T09:03:54.945Z,697.5
2022-08-28T09:04:54.925Z,528.75
2022-08-28T09:05:54.937Z,590.62
2022-08-28T09:06:54.908Z,303.75
2022-08-28T09:07:54.887Z,292.5
2022-08-28T09:08:54.881Z,213.75
2022-08-28T09:09:54.883Z,208.12
2022-08-28T09:10:54.859Z,196.88
2022-08-28T09:11:54.848Z,225
2022-08-28T09:12:54.838Z,281.25
2022-08-28T09:13:54.835Z,219.38
2022-08-28T09:14:54.820Z,427.5
2022-08-28T09:15:54.803Z,388.12
2022-08-28T09:16:54.797Z,388.12
2022-08-28T09:17:54.791Z,348.75
2022-08-28T09:18:54.788Z,388.12
2022-08-28T09:19:54.756Z,500.62
2022-08-28T09:20:54.758Z,438.75
2022-08-28T09:21:54.738Z,483.75
2022-08-28T09:22:54.727Z,1158.75
2022-08-28T09:23:54.731Z,990
2022-08-28T09:24:54.716Z,1102.5
2022-08-28T09:25:54.699Z,1203.75
2022-08-28T09:26:54.686Z,1265.62
2022-08-28T09:27:54.676Z,1248.75
2022-08-28T09:28:54.679Z,1186.88
2022-08-28T09:29:54.655Z,1029.38
2022-08-28T09:30:54.655Z,258.75
2022-08-28T09:31:54.639Z,236.25
2022-08-28T09:32:54.636Z,337.5
2022-08-28T09:33:54.624Z,315
2022-08-28T09:34:54.598Z,247.5
2022-08-28T09:35:54.592Z,247.5
2022-08-28T09:36:54.579Z,236.25
2022-08-28T09:37:54.588Z,253.12
2022-08-28T09:38:54.578Z,258.75
2022-08-28T09:39:54.555Z,247.5
2022-08-28T09:40:54.542Z,247.5
2022-08-28T09:41:54.536Z,253.12
2022-08-28T09:42:54.527Z,253.12
2022-08-28T09:43:54.515Z,253.12
2022-08-28T09:44:54.527Z,247.5
2022-08-28T09:45:54.526Z,247.5
2022-08-28T09:46:54.490Z,247.5
2022-08-28T09:47:54.467Z,258.75
2022-08-28T09:48:54.455Z,264.38
2022-08-28T09:49:54.443Z,281.25
2022-08-28T09:50:54.450Z,298.12
2022-08-28T09:51:54.419Z,315
2022-08-28T09:52:54.426Z,320.62
2022-08-28T09:53:54.402Z,315
2022-08-28T09:54:54.390Z,281.25
2022-08-28T09:55:54.393Z,264.38
2022-08-28T09:56:54.396Z,264.38
2022-08-28T09:57:54.358Z,264.38
2022-08-28T09:58:54.350Z,270
2022-08-28T09:59:54.353Z,624.38
2022-08-28T10:00:54.340Z,1181.25
2022-08-28T10:01:54.337Z,1462.5
2022-08-28T10:02:54.330Z,1468.12
2022-08-28T10:03:54.322Z,978.75
2022-08-28T10:04:54.288Z,1473.75
2022-08-28T10:05:54.272Z,1417.5
2022-08-28T10:06:54.272Z,236.25
2022-08-28T10:07:54.258Z,1586.25
2022-08-28T10:08:54.250Z,281.25
2022-08-28T10:09:54.236Z,292.5
2022-08-28T10:10:54.223Z,1575
2022-08-28T10:11:54.225Z,1586.25
2022-08-28T10:12:54.204Z,1501.88
2022-08-28T10:13:54.199Z,365.62
2022-08-28T10:14:54.191Z,258.75
2022-08-28T10:15:54.213Z,303.75
2022-08-28T10:16:54.165Z,1597.5
2022-08-28T10:17:54.155Z,1541.25
2022-08-28T10:18:54.146Z,343.12
2022-08-28T10:19:54.147Z,410.62
2022-08-28T10:20:54.153Z,1586.25
2022-08-28T10:21:54.156Z,1518.75
2022-08-28T10:22:54.101Z,1580.62
2022-08-28T10:23:54.085Z,1631.25
2022-08-28T10:24:54.077Z,1603.12
2022-08-28T10:25:54.073Z,1597.5
2022-08-28T10:26:54.055Z,1625.62
2022-08-28T10:27:54.046Z,1603.12
2022-08-28T10:28:54.042Z,1648.12
2022-08-28T10:29:54.032Z,1620
2022-08-28T10:30:54.051Z,1597.5
2022-08-28T10:31:54.018Z,1670.62
2022-08-28T10:32:54.022Z,1670.62
2022-08-28T10:33:53.991Z,1642.5
2022-08-28T10:34:53.977Z,1614.38
2022-08-28T10:35:53.965Z,1620
2022-08-28T10:36:53.954Z,1653.75
2022-08-28T10:37:53.946Z,1693.12
2022-08-28T10:38:53.937Z,326.25
2022-08-28T10:39:53.933Z,281.25
2022-08-28T10:40:53.919Z,562.5
2022-08-28T10:41:53.900Z,270
2022-08-28T10:42:53.895Z,258.75
2022-08-28T10:43:53.884Z,331.88
2022-08-28T10:44:53.890Z,438.75
2022-08-28T10:45:53.863Z,793.12
2022-08-28T10:46:53.861Z,1411.88
2022-08-28T10:47:53.839Z,1558.12
2022-08-28T10:48:53.833Z,579.38
2022-08-28T10:49:53.821Z,478.12
2022-08-28T10:50:53.859Z,275.62
2022-08-28T10:51:53.807Z,405
2022-08-28T10:52:53.789Z,382.5
2022-08-28T10:53:53.779Z,720
2022-08-28T10:54:53.793Z,1856.25
2022-08-28T10:55:53.766Z,1738.12
2022-08-28T10:56:53.753Z,1715.62
2022-08-28T10:57:53.743Z,1788.75
2022-08-28T10:58:53.742Z,1800
2022-08-28T10:59:53.729Z,1760.62
2022-08-28T11:00:53.706Z,1715.62
2022-08-28T11:01:53.731Z,1670.62
2022-08-28T11:02:53.688Z,1659.38
2022-08-28T11:03:53.679Z,1715.62
2022-08-28T11:04:53.678Z,1743.75
2022-08-28T11:05:53.662Z,1760.62
2022-08-28T11:06:53.649Z,1783.12
2022-08-28T11:07:53.647Z,1794.38
2022-08-28T11:08:53.627Z,1828.12
2022-08-28T11:09:53.633Z,1771.88
2022-08-28T11:10:53.606Z,1833.75
2022-08-28T11:11:53.592Z,804.38
2022-08-28T11:12:53.602Z,1243.12
2022-08-28T11:13:53.594Z,1507.5
2022-08-28T11:14:53.601Z,1822.5
2022-08-28T11:15:53.553Z,1743.75
2022-08-28T11:16:53.553Z,1867.5
2022-08-28T11:17:53.544Z,1878.75
2022-08-28T11:18:53.528Z,1890
2022-08-28T11:19:53.518Z,1918.12
2022-08-28T11:20:53.507Z,1873.12
2022-08-28T11:21:53.499Z,1845
2022-08-28T11:22:53.500Z,1771.88
2022-08-28T11:23:53.479Z,1811.25
2022-08-28T11:24:53.472Z,1805.62
2022-08-28T11:25:53.467Z,1839.38
2022-08-28T11:26:53.481Z,1923.75
2022-08-28T11:27:53.468Z,1968.75
2022-08-28T11:28:53.427Z,1906.88
2022-08-28T11:29:53.424Z,916.88
2022-08-28T11:30:53.423Z,1170
2022-08-28T11:31:53.410Z,1794.38
2022-08-28T11:32:53.390Z,720
2022-08-28T11:33:53.384Z,376.88
2022-08-28T11:34:53.376Z,1906.88
2022-08-28T11:35:53.366Z,1681.88
2022-08-28T11:36:53.365Z,1845
2022-08-28T11:37:53.362Z,1901.25
2022-08-28T11:38:53.338Z,1850.62
2022-08-28T11:39:53.336Z,472.5
2022-08-28T11:40:53.310Z,320.62
2022-08-28T11:41:53.303Z,433.12
2022-08-28T11:42:53.300Z,1828.12
2022-08-28T11:43:53.285Z,1935
2022-08-28T11:44:53.276Z,1901.25
2022-08-28T11:45:53.277Z,1063.12
2022-08-28T11:46:53.254Z,1423.12
2022-08-28T11:47:53.245Z,736.88
2022-08-28T11:48:53.244Z,562.5
2022-08-28T11:49:53.226Z,1344.38
2022-08-28T11:50:53.216Z,1777.5
2022-08-28T11:51:53.207Z,478.12
2022-08-28T11:52:53.206Z,1935
2022-08-28T11:53:53.190Z,641.25
2022-08-28T11:54:53.178Z,528.75
2022-08-28T11:55:53.164Z,1963.12
2022-08-28T11:56:53.158Z,967.5
2022-08-28T11:57:53.149Z,1698.75
2022-08-28T11:58:53.143Z,1771.88
2022-08-28T11:59:53.126Z,1738.12
2022-08-28T12:00:53.116Z,1760.62
2022-08-28T12:01:53.122Z,1788.75
2022-08-28T12:02:53.121Z,1794.38
2022-08-28T12:03:53.087Z,1766.25
2022-08-28T12:04:53.074Z,1771.88
2022-08-28T12:05:53.066Z,1771.88
2022-08-28T12:06:53.057Z,1726.88
2022-08-28T12:07:53.052Z,1698.75
2022-08-28T12:08:53.045Z,1726.88
2022-08-28T12:09:53.025Z,1755
2022-08-28T12:10:53.030Z,1845
2022-08-28T12:11:53.006Z,528.75
2022-08-28T12:12:52.997Z,1918.12
2022-08-28T12:13:52.985Z,1923.75
2022-08-28T12:14:52.994Z,1850.62
2022-08-28T12:15:52.994Z,1867.5
2022-08-28T12:16:52.966Z,1816.88
2022-08-28T12:17:52.954Z,1777.5
2022-08-28T12:18:52.963Z,1721.25
2022-08-28T12:19:52.934Z,1535.62
2022-08-28T12:20:52.927Z,1541.25
2022-08-28T12:21:52.908Z,1541.25
2022-08-28T12:22:52.910Z,1670.62
2022-08-28T12:23:52.909Z,973.12
2022-08-28T12:24:52.884Z,646.88
2022-08-28T12:25:52.867Z,264.38
2022-08-28T12:26:52.857Z,1687.5
2022-08-28T12:27:52.877Z,1850.62
2022-08-28T12:28:52.891Z,1766.25
2022-08-28T12:29:52.856Z,1749.38
2022-08-28T12:30:52.826Z,1710
2022-08-28T12:31:52.838Z,1760.62
2022-08-28T12:32:52.812Z,1771.88
2022-08-28T12:33:52.791Z,1839.38
2022-08-28T12:34:52.787Z,1884.38
2022-08-28T12:35:52.771Z,1800
2022-08-28T12:36:52.764Z,1755
2022-08-28T12:37:52.752Z,1771.88
2022-08-28T12:38:52.757Z,1755
2022-08-28T12:39:52.762Z,1693.12
2022-08-28T12:40:52.726Z,1653.75
2022-08-28T12:41:52.716Z,1760.62
2022-08-28T12:42:52.707Z,1828.12
2022-08-28T12:43:52.694Z,1710
2022-08-28T12:44:52.679Z,1648.12
2022-08-28T12:45:52.695Z,1681.88
2022-08-28T12:46:52.666Z,1681.88
2022-08-28T12:47:52.655Z,1698.75
2022-08-28T12:48:52.640Z,1738.12
2022-08-28T12:49:52.639Z,1726.88
2022-08-28T12:50:52.629Z,1771.88
2022-08-28T12:51:52.611Z,1822.5
2022-08-28T12:52:52.608Z,1614.38
2022-08-28T12:53:52.615Z,1372.5
2022-08-28T12:54:52.587Z,1282.5
2022-08-28T12:55:52.583Z,1305
2022-08-28T12:56:52.569Z,1485
2022-08-28T12:57:52.558Z,1670.62
2022-08-28T12:58:52.549Z,1783.12
2022-08-28T12:59:52.537Z,1771.88
2022-08-28T13:00:52.545Z,1665
2022-08-28T13:01:52.519Z,1681.88
2022-08-28T13:02:52.507Z,1676.25
2022-08-28T13:03:52.519Z,1693.12
2022-08-28T13:04:52.490Z,1743.75
2022-08-28T13:05:52.479Z,1687.5
2022-08-28T13:06:52.479Z,1620
2022-08-28T13:07:52.458Z,1726.88
2022-08-28T13:08:52.453Z,1766.25
2022-08-28T13:09:52.443Z,1766.25
2022-08-28T13:10:52.459Z,1732.5
2022-08-28T13:11:52.425Z,1760.62
2022-08-28T13:12:52.416Z,1721.25
2022-08-28T13:13:52.411Z,1653.75
2022-08-28T13:14:52.410Z,1687.5
2022-08-28T13:15:52.385Z,1631.25
2022-08-28T13:16:52.377Z,1625.62
2022-08-28T13:17:52.361Z,1698.75
2022-08-28T13:18:52.356Z,1563.75